sensor_id;sensor_type;location;lat;lon;timestamp;temperature;humidity
7331;DHT22;3706;49.198;7.064;2022-12-10T00:02:14;0.70;99.90
7331;DHT22;3706;49.198;7.064;2022-12-10T00:04:42;0.70;99.90
7331;DHT22;3706;49.198;7.064;2022-12-10T00:07:09;0.60;99.90
7331;DHT22;3706;49.198;7.064;2022-12-10T00:09:36;0.60;99.90
7331;DHT22;3706;49.198;7.064;2022-12-10T00:12:04;0.50;99.90
7331;DHT22;3706;49.198;7.064;2022-12-10T00:14:31;0.60;99.90
7331;DHT22;3706;49.198;7.064;2022-12-10T00:16:57;0.70;99.90
7331;DHT22;3706;49.198;7.064;2022-12-10T00:19:24;0.80;99.90
7331;DHT22;3706;49.198;7.064;2022-12-10T00:21:52;0.90;99.90
7331;DHT22;3706;49.198;7.064;2022-12-10T00:24:19;0.90;99.90
7331;DHT22;3706;49.198;7.064;2022-12-10T00:26:46;0.80;99.90
7331;DHT22;3706;49.198;7.064;2022-12-10T00:29:13;0.70;99.90
7331;DHT22;3706;49.198;7.064;2022-12-10T00:31:41;0.70;99.90
7331;DHT22;3706;49.198;7.064;2022-12-10T00:34:09;0.60;99.90
7331;DHT22;3706;49.198;7.064;2022-12-10T00:36:38;0.50;99.90
7331;DHT22;3706;49.198;7.064;2022-12-10T00:39:07;0.60;99.90
7331;DHT22;3706;49.198;7.064;2022-12-10T00:41:34;0.50;99.90
7331;DHT22;3706;49.198;7.064;2022-12-10T00:44:01;0.50;99.90
7331;DHT22;3706;49.198;7.064;2022-12-10T00:46:28;0.40;99.90
7331;DHT22;3706;49.198;7.064;2022-12-10T00:48:55;0.40;99.90
7331;DHT22;3706;49.198;7.064;2022-12-10T00:51:23;0.60;99.90
7331;DHT22;3706;49.198;7.064;2022-12-10T00:53:52;0.50;99.90
7331;DHT22;3706;49.198;7.064;2022-12-10T00:56:23;0.50;99.90
7331;DHT22;3706;49.198;7.064;2022-12-10T00:58:51;0.40;99.90
7331;DHT22;3706;49.198;7.064;2022-12-10T01:01:20;0.40;99.90
7331;DHT22;3706;49.198;7.064;2022-12-10T01:03:49;0.50;99.90
7331;DHT22;3706;49.198;7.064;2022-12-10T01:06:18;0.50;99.90
7331;DHT22;3706;49.198;7.064;2022-12-10T01:08:46;0.50;99.90
7331;DHT22;3706;49.198;7.064;2022-12-10T01:11:15;0.50;99.90
7331;DHT22;3706;49.198;7.064;2022-12-10T01:13:45;0.70;99.90
7331;DHT22;3706;49.198;7.064;2022-12-10T01:16:14;0.80;99.90
7331;DHT22;3706;49.198;7.064;2022-12-10T01:18:41;0.90;99.90
7331;DHT22;3706;49.198;7.064;2022-12-10T01:21:10;1.00;99.90
7331;DHT22;3706;49.198;7.064;2022-12-10T01:23:39;1.10;99.90
7331;DHT22;3706;49.198;7.064;2022-12-10T01:26:08;1.10;99.90
7331;DHT22;3706;49.198;7.064;2022-12-10T01:28:37;1.20;99.90
7331;DHT22;3706;49.198;7.064;2022-12-10T01:31:07;1.20;99.90
7331;DHT22;3706;49.198;7.064;2022-12-10T01:33:35;1.10;99.90
7331;DHT22;3706;49.198;7.064;2022-12-10T01:36:03;1.20;99.90
7331;DHT22;3706;49.198;7.064;2022-12-10T01:38:30;1.30;99.90
7331;DHT22;3706;49.198;7.064;2022-12-10T01:40:57;1.30;99.90
7331;DHT22;3706;49.198;7.064;2022-12-10T01:43:24;1.20;99.90
7331;DHT22;3706;49.198;7.064;2022-12-10T01:45:52;1.10;99.90
7331;DHT22;3706;49.198;7.064;2022-12-10T01:48:20;1.00;99.90
7331;DHT22;3706;49.198;7.064;2022-12-10T01:50:47;0.90;99.90
7331;DHT22;3706;49.198;7.064;2022-12-10T01:53:14;0.80;99.90
7331;DHT22;3706;49.198;7.064;2022-12-10T01:55:47;0.80;99.90
7331;DHT22;3706;49.198;7.064;2022-12-10T01:58:17;0.80;99.90
7331;DHT22;3706;49.198;7.064;2022-12-10T02:01:02;0.70;99.90
7331;DHT22;3706;49.198;7.064;2022-12-10T02:03:37;0.70;99.90
7331;DHT22;3706;49.198;7.064;2022-12-10T02:06:15;0.70;99.90
7331;DHT22;3706;49.198;7.064;2022-12-10T02:08:49;0.50;99.90
7331;DHT22;3706;49.198;7.064;2022-12-10T02:11:22;0.50;99.90
7331;DHT22;3706;49.198;7.064;2022-12-10T02:13:56;0.50;99.90
7331;DHT22;3706;49.198;7.064;2022-12-10T02:16:30;0.60;99.90
7331;DHT22;3706;49.198;7.064;2022-12-10T02:19:06;0.60;99.90
7331;DHT22;3706;49.198;7.064;2022-12-10T02:21:39;0.60;99.90
7331;DHT22;3706;49.198;7.064;2022-12-10T02:24:09;0.40;99.90
7331;DHT22;3706;49.198;7.064;2022-12-10T02:26:44;0.40;99.90
7331;DHT22;3706;49.198;7.064;2022-12-10T02:29:15;0.30;99.90
7331;DHT22;3706;49.198;7.064;2022-12-10T02:31:46;0.20;99.90
7331;DHT22;3706;49.198;7.064;2022-12-10T02:34:15;0.20;99.90
7331;DHT22;3706;49.198;7.064;2022-12-10T02:36:45;0.10;99.90
7331;DHT22;3706;49.198;7.064;2022-12-10T02:39:22;0.10;99.90
7331;DHT22;3706;49.198;7.064;2022-12-10T02:41:53;0.10;99.90
7331;DHT22;3706;49.198;7.064;2022-12-10T02:44:23;0.10;99.90
7331;DHT22;3706;49.198;7.064;2022-12-10T02:46:53;0.10;99.90
7331;DHT22;3706;49.198;7.064;2022-12-10T02:49:22;0.00;99.90
7331;DHT22;3706;49.198;7.064;2022-12-10T02:51:50;0.00;99.90
7331;DHT22;3706;49.198;7.064;2022-12-10T02:54:38;0.00;99.90
7331;DHT22;3706;49.198;7.064;2022-12-10T02:57:15;0.00;99.90
7331;DHT22;3706;49.198;7.064;2022-12-10T03:00:00;0.00;99.90
7331;DHT22;3706;49.198;7.064;2022-12-10T03:02:33;0.00;99.90
7331;DHT22;3706;49.198;7.064;2022-12-10T03:05:03;0.00;99.90
7331;DHT22;3706;49.198;7.064;2022-12-10T03:07:35;0.10;99.90
7331;DHT22;3706;49.198;7.064;2022-12-10T03:10:06;0.20;99.90
7331;DHT22;3706;49.198;7.064;2022-12-10T03:12:41;0.20;99.90
7331;DHT22;3706;49.198;7.064;2022-12-10T03:15:12;0.10;99.90
7331;DHT22;3706;49.198;7.064;2022-12-10T03:17:42;0.10;99.90
7331;DHT22;3706;49.198;7.064;2022-12-10T03:20:12;0.10;99.90
7331;DHT22;3706;49.198;7.064;2022-12-10T03:22:44;0.20;99.90
7331;DHT22;3706;49.198;7.064;2022-12-10T03:25:15;0.10;99.90
7331;DHT22;3706;49.198;7.064;2022-12-10T03:27:45;0.20;99.90
7331;DHT22;3706;49.198;7.064;2022-12-10T03:30:14;0.20;99.90
7331;DHT22;3706;49.198;7.064;2022-12-10T03:32:41;0.10;99.90
7331;DHT22;3706;49.198;7.064;2022-12-10T03:35:10;0.10;99.90
7331;DHT22;3706;49.198;7.064;2022-12-10T03:37:37;0.10;99.90
7331;DHT22;3706;49.198;7.064;2022-12-10T03:40:06;0.10;99.90
7331;DHT22;3706;49.198;7.064;2022-12-10T03:42:35;0.10;99.90
7331;DHT22;3706;49.198;7.064;2022-12-10T03:45:03;0.20;99.90
7331;DHT22;3706;49.198;7.064;2022-12-10T03:47:32;0.20;99.90
7331;DHT22;3706;49.198;7.064;2022-12-10T03:49:59;0.20;99.90
7331;DHT22;3706;49.198;7.064;2022-12-10T03:52:26;0.20;99.90
7331;DHT22;3706;49.198;7.064;2022-12-10T03:54:53;0.30;99.90
7331;DHT22;3706;49.198;7.064;2022-12-10T03:57:20;0.20;99.90
7331;DHT22;3706;49.198;7.064;2022-12-10T03:59:47;0.20;99.90
7331;DHT22;3706;49.198;7.064;2022-12-10T04:02:13;0.20;99.90
7331;DHT22;3706;49.198;7.064;2022-12-10T04:04:42;0.20;99.90
7331;DHT22;3706;49.198;7.064;2022-12-10T04:07:09;0.10;99.90
7331;DHT22;3706;49.198;7.064;2022-12-10T04:09:36;0.10;99.90
7331;DHT22;3706;49.198;7.064;2022-12-10T04:12:03;0.00;99.90
7331;DHT22;3706;49.198;7.064;2022-12-10T04:14:30;0.00;99.90
7331;DHT22;3706;49.198;7.064;2022-12-10T04:17:15;0.10;99.90
7331;DHT22;3706;49.198;7.064;2022-12-10T04:19:43;0.00;99.90
7331;DHT22;3706;49.198;7.064;2022-12-10T04:22:10;-0.10;99.90
7331;DHT22;3706;49.198;7.064;2022-12-10T04:24:55;-0.10;99.90
7331;DHT22;3706;49.198;7.064;2022-12-10T04:27:39;-0.10;99.90
7331;DHT22;3706;49.198;7.064;2022-12-10T04:30:09;0.00;99.90
7331;DHT22;3706;49.198;7.064;2022-12-10T04:32:36;-0.10;99.90
7331;DHT22;3706;49.198;7.064;2022-12-10T04:35:05;-0.20;99.90
7331;DHT22;3706;49.198;7.064;2022-12-10T04:37:33;0.00;99.90
7331;DHT22;3706;49.198;7.064;2022-12-10T04:40:00;0.00;99.90
7331;DHT22;3706;49.198;7.064;2022-12-10T04:42:28;0.10;99.90
7331;DHT22;3706;49.198;7.064;2022-12-10T04:44:55;0.10;99.90
7331;DHT22;3706;49.198;7.064;2022-12-10T04:47:21;0.30;99.90
7331;DHT22;3706;49.198;7.064;2022-12-10T04:49:48;0.40;99.90
7331;DHT22;3706;49.198;7.064;2022-12-10T04:52:17;0.50;99.90
7331;DHT22;3706;49.198;7.064;2022-12-10T04:54:44;0.60;99.90
7331;DHT22;3706;49.198;7.064;2022-12-10T04:57:11;0.70;99.90
7331;DHT22;3706;49.198;7.064;2022-12-10T04:59:39;0.70;99.90
7331;DHT22;3706;49.198;7.064;2022-12-10T05:02:06;0.70;99.90
7331;DHT22;3706;49.198;7.064;2022-12-10T05:04:33;0.70;99.90
7331;DHT22;3706;49.198;7.064;2022-12-10T05:07:00;0.70;99.90
7331;DHT22;3706;49.198;7.064;2022-12-10T05:09:28;0.70;99.90
7331;DHT22;3706;49.198;7.064;2022-12-10T05:11:55;0.80;99.90
7331;DHT22;3706;49.198;7.064;2022-12-10T05:14:22;0.80;99.90
7331;DHT22;3706;49.198;7.064;2022-12-10T05:16:50;0.80;99.90
7331;DHT22;3706;49.198;7.064;2022-12-10T05:19:17;0.80;99.90
7331;DHT22;3706;49.198;7.064;2022-12-10T05:21:47;0.80;99.90
7331;DHT22;3706;49.198;7.064;2022-12-10T05:24:34;0.90;99.90
7331;DHT22;3706;49.198;7.064;2022-12-10T05:27:01;0.90;99.90
7331;DHT22;3706;49.198;7.064;2022-12-10T05:29:28;1.00;99.90
7331;DHT22;3706;49.198;7.064;2022-12-10T05:31:55;0.90;99.90
7331;DHT22;3706;49.198;7.064;2022-12-10T05:34:22;0.90;99.90
7331;DHT22;3706;49.198;7.064;2022-12-10T05:36:49;0.70;99.90
7331;DHT22;3706;49.198;7.064;2022-12-10T05:39:16;0.60;99.90
7331;DHT22;3706;49.198;7.064;2022-12-10T05:41:44;0.40;99.90
7331;DHT22;3706;49.198;7.064;2022-12-10T05:44:11;0.30;99.90
7331;DHT22;3706;49.198;7.064;2022-12-10T05:46:38;0.30;99.90
7331;DHT22;3706;49.198;7.064;2022-12-10T05:49:06;0.10;99.90
7331;DHT22;3706;49.198;7.064;2022-12-10T05:51:36;0.00;99.90
7331;DHT22;3706;49.198;7.064;2022-12-10T05:54:04;0.00;99.90
7331;DHT22;3706;49.198;7.064;2022-12-10T05:56:32;0.10;99.90
7331;DHT22;3706;49.198;7.064;2022-12-10T05:59:02;0.00;99.90
7331;DHT22;3706;49.198;7.064;2022-12-10T06:01:31;0.00;99.90
7331;DHT22;3706;49.198;7.064;2022-12-10T06:03:59;0.10;99.90
7331;DHT22;3706;49.198;7.064;2022-12-10T06:06:28;0.00;99.90
7331;DHT22;3706;49.198;7.064;2022-12-10T06:08:56;0.10;99.90
7331;DHT22;3706;49.198;7.064;2022-12-10T06:11:23;0.00;99.90
7331;DHT22;3706;49.198;7.064;2022-12-10T06:13:52;0.10;99.90
7331;DHT22;3706;49.198;7.064;2022-12-10T06:16:21;0.10;99.90
7331;DHT22;3706;49.198;7.064;2022-12-10T06:18:48;0.00;99.90
7331;DHT22;3706;49.198;7.064;2022-12-10T06:21:15;0.10;99.90
7331;DHT22;3706;49.198;7.064;2022-12-10T06:23:43;0.10;99.90
7331;DHT22;3706;49.198;7.064;2022-12-10T06:26:12;0.00;99.90
7331;DHT22;3706;49.198;7.064;2022-12-10T06:28:39;0.00;99.90
7331;DHT22;3706;49.198;7.064;2022-12-10T06:31:07;0.00;99.90
7331;DHT22;3706;49.198;7.064;2022-12-10T06:33:35;0.00;99.90
7331;DHT22;3706;49.198;7.064;2022-12-10T06:36:04;0.00;99.90
7331;DHT22;3706;49.198;7.064;2022-12-10T06:38:31;0.00;99.90
7331;DHT22;3706;49.198;7.064;2022-12-10T06:40:58;0.00;99.90
7331;DHT22;3706;49.198;7.064;2022-12-10T06:43:28;0.00;99.90
7331;DHT22;3706;49.198;7.064;2022-12-10T06:45:55;0.00;99.90
7331;DHT22;3706;49.198;7.064;2022-12-10T06:48:22;0.10;99.90
7331;DHT22;3706;49.198;7.064;2022-12-10T06:50:51;0.30;99.90
7331;DHT22;3706;49.198;7.064;2022-12-10T06:53:18;0.40;99.90
7331;DHT22;3706;49.198;7.064;2022-12-10T06:55:45;0.50;99.90
7331;DHT22;3706;49.198;7.064;2022-12-10T06:58:12;0.60;99.90
7331;DHT22;3706;49.198;7.064;2022-12-10T07:00:39;0.60;99.90
7331;DHT22;3706;49.198;7.064;2022-12-10T07:03:05;0.80;99.90
7331;DHT22;3706;49.198;7.064;2022-12-10T07:05:32;0.80;99.90
7331;DHT22;3706;49.198;7.064;2022-12-10T07:08:01;0.90;99.90
7331;DHT22;3706;49.198;7.064;2022-12-10T07:10:28;1.00;99.90
7331;DHT22;3706;49.198;7.064;2022-12-10T07:12:55;0.90;99.90
7331;DHT22;3706;49.198;7.064;2022-12-10T07:15:22;0.80;99.90
7331;DHT22;3706;49.198;7.064;2022-12-10T07:17:50;0.70;99.90
7331;DHT22;3706;49.198;7.064;2022-12-10T07:20:18;0.50;99.90
7331;DHT22;3706;49.198;7.064;2022-12-10T07:22:45;0.40;99.90
7331;DHT22;3706;49.198;7.064;2022-12-10T07:25:13;0.30;99.90
7331;DHT22;3706;49.198;7.064;2022-12-10T07:27:40;0.30;99.90
7331;DHT22;3706;49.198;7.064;2022-12-10T07:30:08;0.20;99.90
7331;DHT22;3706;49.198;7.064;2022-12-10T07:32:35;0.20;99.90
7331;DHT22;3706;49.198;7.064;2022-12-10T07:35:02;0.10;99.90
7331;DHT22;3706;49.198;7.064;2022-12-10T07:37:29;0.10;99.90
7331;DHT22;3706;49.198;7.064;2022-12-10T07:39:57;0.20;99.90
7331;DHT22;3706;49.198;7.064;2022-12-10T07:42:25;0.20;99.90
7331;DHT22;3706;49.198;7.064;2022-12-10T07:44:52;0.20;99.90
7331;DHT22;3706;49.198;7.064;2022-12-10T07:47:19;0.20;99.90
7331;DHT22;3706;49.198;7.064;2022-12-10T07:49:46;0.20;99.90
7331;DHT22;3706;49.198;7.064;2022-12-10T07:52:12;0.20;99.90
7331;DHT22;3706;49.198;7.064;2022-12-10T07:54:39;0.20;99.90
7331;DHT22;3706;49.198;7.064;2022-12-10T07:57:06;0.20;99.90
7331;DHT22;3706;49.198;7.064;2022-12-10T07:59:34;0.30;99.90
7331;DHT22;3706;49.198;7.064;2022-12-10T08:02:01;0.40;99.90
7331;DHT22;3706;49.198;7.064;2022-12-10T08:04:29;0.50;99.90
7331;DHT22;3706;49.198;7.064;2022-12-10T08:06:56;0.70;99.90
7331;DHT22;3706;49.198;7.064;2022-12-10T08:09:23;0.80;99.90
7331;DHT22;3706;49.198;7.064;2022-12-10T08:11:50;1.00;99.90
7331;DHT22;3706;49.198;7.064;2022-12-10T08:14:18;1.10;99.90
7331;DHT22;3706;49.198;7.064;2022-12-10T08:16:47;1.20;99.90
7331;DHT22;3706;49.198;7.064;2022-12-10T08:19:14;1.20;99.90
7331;DHT22;3706;49.198;7.064;2022-12-10T08:21:40;1.20;99.90
7331;DHT22;3706;49.198;7.064;2022-12-10T08:24:08;1.20;99.90
7331;DHT22;3706;49.198;7.064;2022-12-10T08:26:35;1.30;99.90
7331;DHT22;3706;49.198;7.064;2022-12-10T08:29:04;1.20;99.90
7331;DHT22;3706;49.198;7.064;2022-12-10T08:31:31;1.30;99.90
7331;DHT22;3706;49.198;7.064;2022-12-10T08:33:59;1.30;99.90
7331;DHT22;3706;49.198;7.064;2022-12-10T08:36:26;1.40;99.90
7331;DHT22;3706;49.198;7.064;2022-12-10T08:38:53;1.40;99.90
7331;DHT22;3706;49.198;7.064;2022-12-10T08:41:22;1.40;99.90
7331;DHT22;3706;49.198;7.064;2022-12-10T08:43:51;1.50;99.90
7331;DHT22;3706;49.198;7.064;2022-12-10T08:46:18;1.50;99.90
7331;DHT22;3706;49.198;7.064;2022-12-10T08:48:45;1.50;99.90
7331;DHT22;3706;49.198;7.064;2022-12-10T08:51:16;1.50;99.90
7331;DHT22;3706;49.198;7.064;2022-12-10T08:53:44;1.50;99.90
7331;DHT22;3706;49.198;7.064;2022-12-10T08:56:11;1.50;99.90
7331;DHT22;3706;49.198;7.064;2022-12-10T08:58:38;1.50;99.90
7331;DHT22;3706;49.198;7.064;2022-12-10T09:01:07;1.60;99.90
7331;DHT22;3706;49.198;7.064;2022-12-10T09:03:34;1.60;99.90
7331;DHT22;3706;49.198;7.064;2022-12-10T09:06:03;1.60;99.90
7331;DHT22;3706;49.198;7.064;2022-12-10T09:08:32;1.60;99.90
7331;DHT22;3706;49.198;7.064;2022-12-10T09:11:04;1.60;99.90
7331;DHT22;3706;49.198;7.064;2022-12-10T09:13:32;1.70;99.90
7331;DHT22;3706;49.198;7.064;2022-12-10T09:15:59;1.80;99.90
7331;DHT22;3706;49.198;7.064;2022-12-10T09:18:26;2.00;99.90
7331;DHT22;3706;49.198;7.064;2022-12-10T09:20:53;2.00;99.90
7331;DHT22;3706;49.198;7.064;2022-12-10T09:23:20;2.10;99.90
7331;DHT22;3706;49.198;7.064;2022-12-10T09:25:50;2.20;99.90
7331;DHT22;3706;49.198;7.064;2022-12-10T09:28:17;2.30;99.90
7331;DHT22;3706;49.198;7.064;2022-12-10T09:30:44;2.30;99.90
7331;DHT22;3706;49.198;7.064;2022-12-10T09:33:11;2.30;99.90
7331;DHT22;3706;49.198;7.064;2022-12-10T09:35:41;2.30;99.90
7331;DHT22;3706;49.198;7.064;2022-12-10T09:38:08;2.40;99.90
7331;DHT22;3706;49.198;7.064;2022-12-10T09:40:40;2.40;99.90
7331;DHT22;3706;49.198;7.064;2022-12-10T09:43:17;2.40;99.90
7331;DHT22;3706;49.198;7.064;2022-12-10T09:45:58;2.30;99.90
7331;DHT22;3706;49.198;7.064;2022-12-10T09:48:32;2.30;99.90
7331;DHT22;3706;49.198;7.064;2022-12-10T09:51:08;2.40;99.90
7331;DHT22;3706;49.198;7.064;2022-12-10T09:53:37;2.50;99.90
7331;DHT22;3706;49.198;7.064;2022-12-10T09:56:08;2.60;99.90
7331;DHT22;3706;49.198;7.064;2022-12-10T09:58:42;2.70;99.90
7331;DHT22;3706;49.198;7.064;2022-12-10T10:01:12;2.80;99.90
7331;DHT22;3706;49.198;7.064;2022-12-10T10:03:41;2.90;99.90
7331;DHT22;3706;49.198;7.064;2022-12-10T10:06:10;3.00;99.90
7331;DHT22;3706;49.198;7.064;2022-12-10T10:08:41;3.10;99.90
7331;DHT22;3706;49.198;7.064;2022-12-10T10:11:14;3.20;99.90
7331;DHT22;3706;49.198;7.064;2022-12-10T10:13:46;3.30;99.90
7331;DHT22;3706;49.198;7.064;2022-12-10T10:16:23;3.40;99.90
7331;DHT22;3706;49.198;7.064;2022-12-10T10:18:56;3.50;99.90
7331;DHT22;3706;49.198;7.064;2022-12-10T10:21:27;3.50;99.90
7331;DHT22;3706;49.198;7.064;2022-12-10T10:23:55;3.60;99.90
7331;DHT22;3706;49.198;7.064;2022-12-10T10:26:24;3.50;99.90
7331;DHT22;3706;49.198;7.064;2022-12-10T10:28:56;3.50;99.90
7331;DHT22;3706;49.198;7.064;2022-12-10T10:31:25;3.60;99.90
7331;DHT22;3706;49.198;7.064;2022-12-10T10:33:53;3.50;99.90
7331;DHT22;3706;49.198;7.064;2022-12-10T10:36:27;3.40;99.90
7331;DHT22;3706;49.198;7.064;2022-12-10T10:38:55;3.30;99.90
7331;DHT22;3706;49.198;7.064;2022-12-10T10:41:23;3.20;99.90
7331;DHT22;3706;49.198;7.064;2022-12-10T10:43:59;3.10;99.90
7331;DHT22;3706;49.198;7.064;2022-12-10T10:46:27;3.10;99.90
7331;DHT22;3706;49.198;7.064;2022-12-10T10:49:13;3.20;99.90
7331;DHT22;3706;49.198;7.064;2022-12-10T10:51:42;3.30;99.90
7331;DHT22;3706;49.198;7.064;2022-12-10T10:54:10;3.40;99.90
7331;DHT22;3706;49.198;7.064;2022-12-10T10:56:40;3.50;99.90
7331;DHT22;3706;49.198;7.064;2022-12-10T10:59:25;3.70;99.90
7331;DHT22;3706;49.198;7.064;2022-12-10T11:01:58;3.70;99.90
7331;DHT22;3706;49.198;7.064;2022-12-10T11:04:30;3.70;99.90
7331;DHT22;3706;49.198;7.064;2022-12-10T11:07:02;3.70;99.90
7331;DHT22;3706;49.198;7.064;2022-12-10T11:09:31;3.70;99.90
7331;DHT22;3706;49.198;7.064;2022-12-10T11:12:00;3.60;99.90
7331;DHT22;3706;49.198;7.064;2022-12-10T11:14:31;3.60;99.90
7331;DHT22;3706;49.198;7.064;2022-12-10T11:17:02;3.60;99.90
7331;DHT22;3706;49.198;7.064;2022-12-10T11:19:29;3.60;99.90
7331;DHT22;3706;49.198;7.064;2022-12-10T11:22:15;3.60;99.90
7331;DHT22;3706;49.198;7.064;2022-12-10T11:24:43;3.60;99.90
7331;DHT22;3706;49.198;7.064;2022-12-10T11:27:16;3.50;99.90
7331;DHT22;3706;49.198;7.064;2022-12-10T11:29:57;3.30;99.90
7331;DHT22;3706;49.198;7.064;2022-12-10T11:32:49;3.10;99.90
7331;DHT22;3706;49.198;7.064;2022-12-10T11:35:23;2.90;99.90
7331;DHT22;3706;49.198;7.064;2022-12-10T11:37:59;2.80;99.90
7331;DHT22;3706;49.198;7.064;2022-12-10T11:40:34;2.70;99.90
7331;DHT22;3706;49.198;7.064;2022-12-10T11:46:05;2.90;99.90
7331;DHT22;3706;49.198;7.064;2022-12-10T11:48:44;3.00;99.90
7331;DHT22;3706;49.198;7.064;2022-12-10T11:51:22;3.00;99.90
7331;DHT22;3706;49.198;7.064;2022-12-10T11:56:44;3.10;99.90
7331;DHT22;3706;49.198;7.064;2022-12-10T11:59:17;2.90;99.90
7331;DHT22;3706;49.198;7.064;2022-12-10T12:02:02;2.80;99.90
7331;DHT22;3706;49.198;7.064;2022-12-10T12:04:47;2.60;99.90
7331;DHT22;3706;49.198;7.064;2022-12-10T12:07:35;2.50;99.90
7331;DHT22;3706;49.198;7.064;2022-12-10T12:13:03;2.20;99.90
7331;DHT22;3706;49.198;7.064;2022-12-10T12:15:34;2.00;99.90
7331;DHT22;3706;49.198;7.064;2022-12-10T12:18:13;1.90;99.90
7331;DHT22;3706;49.198;7.064;2022-12-10T12:20:45;1.90;99.90
7331;DHT22;3706;49.198;7.064;2022-12-10T12:23:17;1.90;99.90
7331;DHT22;3706;49.198;7.064;2022-12-10T12:25:47;1.90;99.90
7331;DHT22;3706;49.198;7.064;2022-12-10T12:28:20;2.10;99.90
7331;DHT22;3706;49.198;7.064;2022-12-10T12:30:51;2.10;99.90
7331;DHT22;3706;49.198;7.064;2022-12-10T12:33:27;2.20;99.90
7331;DHT22;3706;49.198;7.064;2022-12-10T12:35:57;2.10;99.90
7331;DHT22;3706;49.198;7.064;2022-12-10T12:38:28;2.20;99.90
7331;DHT22;3706;49.198;7.064;2022-12-10T12:40:59;2.20;99.90
7331;DHT22;3706;49.198;7.064;2022-12-10T12:43:34;2.10;99.90
7331;DHT22;3706;49.198;7.064;2022-12-10T12:46:10;2.10;99.90
7331;DHT22;3706;49.198;7.064;2022-12-10T12:48:45;2.00;99.90
7331;DHT22;3706;49.198;7.064;2022-12-10T12:51:19;2.00;99.90
7331;DHT22;3706;49.198;7.064;2022-12-10T12:53:47;1.90;99.90
7331;DHT22;3706;49.198;7.064;2022-12-10T12:56:36;1.90;99.90
7331;DHT22;3706;49.198;7.064;2022-12-10T12:59:22;1.70;99.90
7331;DHT22;3706;49.198;7.064;2022-12-10T13:01:53;1.80;99.90
7331;DHT22;3706;49.198;7.064;2022-12-10T13:04:23;1.80;99.90
7331;DHT22;3706;49.198;7.064;2022-12-10T13:07:09;1.80;99.90
7331;DHT22;3706;49.198;7.064;2022-12-10T13:09:43;1.70;99.90
7331;DHT22;3706;49.198;7.064;2022-12-10T13:12:26;1.70;99.90
7331;DHT22;3706;49.198;7.064;2022-12-10T13:15:01;1.70;99.90
7331;DHT22;3706;49.198;7.064;2022-12-10T13:17:32;1.70;99.90
7331;DHT22;3706;49.198;7.064;2022-12-10T13:20:29;1.70;99.90
7331;DHT22;3706;49.198;7.064;2022-12-10T13:22:58;1.70;99.90
7331;DHT22;3706;49.198;7.064;2022-12-10T13:25:55;1.80;99.90
7331;DHT22;3706;49.198;7.064;2022-12-10T13:28:29;1.80;99.90
7331;DHT22;3706;49.198;7.064;2022-12-10T13:31:18;1.80;99.90
7331;DHT22;3706;49.198;7.064;2022-12-10T13:33:49;1.80;99.90
7331;DHT22;3706;49.198;7.064;2022-12-10T13:36:24;1.70;99.90
7331;DHT22;3706;49.198;7.064;2022-12-10T13:38:58;1.70;99.90
7331;DHT22;3706;49.198;7.064;2022-12-10T13:41:40;1.60;99.90
7331;DHT22;3706;49.198;7.064;2022-12-10T13:44:33;1.70;99.90
7331;DHT22;3706;49.198;7.064;2022-12-10T13:47:05;1.70;99.90
7331;DHT22;3706;49.198;7.064;2022-12-10T13:49:52;1.70;99.90
7331;DHT22;3706;49.198;7.064;2022-12-10T13:52:25;1.70;99.90
7331;DHT22;3706;49.198;7.064;2022-12-10T13:55:20;1.60;99.90
7331;DHT22;3706;49.198;7.064;2022-12-10T14:00:58;1.60;99.90
7331;DHT22;3706;49.198;7.064;2022-12-10T14:03:49;1.50;99.90
7331;DHT22;3706;49.198;7.064;2022-12-10T14:06:20;1.40;99.90
7331;DHT22;3706;49.198;7.064;2022-12-10T14:09:03;1.40;99.90
7331;DHT22;3706;49.198;7.064;2022-12-10T14:11:34;1.40;99.90
7331;DHT22;3706;49.198;7.064;2022-12-10T14:14:05;1.40;99.90
7331;DHT22;3706;49.198;7.064;2022-12-10T14:16:33;1.30;99.90
7331;DHT22;3706;49.198;7.064;2022-12-10T14:19:04;1.30;99.90
7331;DHT22;3706;49.198;7.064;2022-12-10T14:21:33;1.40;99.90
7331;DHT22;3706;49.198;7.064;2022-12-10T14:24:02;1.40;99.90
7331;DHT22;3706;49.198;7.064;2022-12-10T14:26:31;1.50;99.90
7331;DHT22;3706;49.198;7.064;2022-12-10T14:29:00;1.50;99.90
7331;DHT22;3706;49.198;7.064;2022-12-10T14:31:30;1.50;99.90
7331;DHT22;3706;49.198;7.064;2022-12-10T14:34:01;1.40;99.90
7331;DHT22;3706;49.198;7.064;2022-12-10T14:36:30;1.30;99.90
7331;DHT22;3706;49.198;7.064;2022-12-10T14:38:58;1.30;99.90
7331;DHT22;3706;49.198;7.064;2022-12-10T14:41:30;1.20;99.90
7331;DHT22;3706;49.198;7.064;2022-12-10T14:44:01;1.20;99.90
7331;DHT22;3706;49.198;7.064;2022-12-10T14:46:30;1.30;99.90
7331;DHT22;3706;49.198;7.064;2022-12-10T14:48:58;1.10;99.90
7331;DHT22;3706;49.198;7.064;2022-12-10T14:51:31;1.00;99.90
7331;DHT22;3706;49.198;7.064;2022-12-10T14:53:58;1.00;99.90
7331;DHT22;3706;49.198;7.064;2022-12-10T14:56:30;0.90;99.90
7331;DHT22;3706;49.198;7.064;2022-12-10T14:59:04;0.80;99.90
7331;DHT22;3706;49.198;7.064;2022-12-10T15:01:35;0.80;99.90
7331;DHT22;3706;49.198;7.064;2022-12-10T15:04:05;0.70;99.90
7331;DHT22;3706;49.198;7.064;2022-12-10T15:06:35;0.50;99.90
7331;DHT22;3706;49.198;7.064;2022-12-10T15:09:04;0.30;99.90
7331;DHT22;3706;49.198;7.064;2022-12-10T15:11:33;0.20;99.90
7331;DHT22;3706;49.198;7.064;2022-12-10T15:14:01;0.00;99.90
7331;DHT22;3706;49.198;7.064;2022-12-10T15:16:32;0.00;99.90
7331;DHT22;3706;49.198;7.064;2022-12-10T15:19:18;-0.20;99.90
7331;DHT22;3706;49.198;7.064;2022-12-10T15:21:48;-0.20;99.90
7331;DHT22;3706;49.198;7.064;2022-12-10T15:24:19;-0.50;99.90
7331;DHT22;3706;49.198;7.064;2022-12-10T15:26:49;-0.60;99.90
7331;DHT22;3706;49.198;7.064;2022-12-10T15:29:31;-0.70;99.90
7331;DHT22;3706;49.198;7.064;2022-12-10T15:32:03;-0.80;99.90
7331;DHT22;3706;49.198;7.064;2022-12-10T15:34:37;-0.90;99.90
7331;DHT22;3706;49.198;7.064;2022-12-10T15:37:05;-0.90;99.90
7331;DHT22;3706;49.198;7.064;2022-12-10T15:39:42;-1.00;99.90
7331;DHT22;3706;49.198;7.064;2022-12-10T15:42:28;-1.10;99.90
7331;DHT22;3706;49.198;7.064;2022-12-10T15:44:58;-1.10;99.90
7331;DHT22;3706;49.198;7.064;2022-12-10T15:47:26;-1.00;99.90
7331;DHT22;3706;49.198;7.064;2022-12-10T15:49:55;-1.00;99.90
7331;DHT22;3706;49.198;7.064;2022-12-10T15:52:24;-1.00;99.90
7331;DHT22;3706;49.198;7.064;2022-12-10T15:54:53;-0.90;99.90
7331;DHT22;3706;49.198;7.064;2022-12-10T15:57:25;-0.90;99.90
7331;DHT22;3706;49.198;7.064;2022-12-10T15:59:54;-0.90;99.90
7331;DHT22;3706;49.198;7.064;2022-12-10T16:02:29;-0.90;99.90
7331;DHT22;3706;49.198;7.064;2022-12-10T16:04:59;-0.90;99.90
7331;DHT22;3706;49.198;7.064;2022-12-10T16:07:26;-0.90;99.90
7331;DHT22;3706;49.198;7.064;2022-12-10T16:09:53;-1.00;99.90
7331;DHT22;3706;49.198;7.064;2022-12-10T16:12:21;-0.90;99.90
7331;DHT22;3706;49.198;7.064;2022-12-10T16:14:50;-0.90;99.90
7331;DHT22;3706;49.198;7.064;2022-12-10T16:17:22;-0.90;99.90
7331;DHT22;3706;49.198;7.064;2022-12-10T16:19:48;-0.90;99.90
7331;DHT22;3706;49.198;7.064;2022-12-10T16:22:15;-0.90;99.90
7331;DHT22;3706;49.198;7.064;2022-12-10T16:24:42;-0.90;99.90
7331;DHT22;3706;49.198;7.064;2022-12-10T16:27:11;-1.00;99.90
7331;DHT22;3706;49.198;7.064;2022-12-10T16:29:40;-0.90;99.90
7331;DHT22;3706;49.198;7.064;2022-12-10T16:32:09;-0.90;99.90
7331;DHT22;3706;49.198;7.064;2022-12-10T16:34:36;-0.90;99.90
7331;DHT22;3706;49.198;7.064;2022-12-10T16:37:03;-0.90;99.90
7331;DHT22;3706;49.198;7.064;2022-12-10T16:39:30;-1.00;99.90
7331;DHT22;3706;49.198;7.064;2022-12-10T16:41:57;-1.00;99.90
7331;DHT22;3706;49.198;7.064;2022-12-10T16:44:24;-0.90;99.90
7331;DHT22;3706;49.198;7.064;2022-12-10T16:46:52;-1.00;99.90
7331;DHT22;3706;49.198;7.064;2022-12-10T16:49:19;-1.00;99.90
7331;DHT22;3706;49.198;7.064;2022-12-10T16:51:46;-1.20;99.90